createdAt,value
2017-07-18T00:00:11.312Z,1017.17
2017-07-18T00:00:51.877Z,1017.18
2017-07-18T00:01:32.472Z,1017.19
2017-07-18T00:02:13.073Z,1017.16
2017-07-18T00:02:53.668Z,1017.17
2017-07-18T00:03:34.241Z,1017.17
2017-07-18T00:04:14.813Z,1017.19
2017-07-18T00:04:55.388Z,1017.19
2017-07-18T00:05:35.993Z,1017.17
2017-07-18T00:06:16.652Z,1017.18
2017-07-18T00:06:57.245Z,1017.14
2017-07-18T00:07:37.865Z,1017.13
2017-07-18T00:08:18.428Z,1017.14
2017-07-18T00:08:59.025Z,1017.15
2017-07-18T00:09:39.590Z,1017.15
2017-07-18T00:10:20.166Z,1017.15
2017-07-18T00:11:00.733Z,1017.19
2017-07-18T00:11:41.341Z,1017.15
2017-07-18T00:12:21.914Z,1017.16
2017-07-18T00:13:02.543Z,1017.21
2017-07-18T00:13:43.124Z,1017.19
2017-07-18T00:14:23.708Z,1017.17
2017-07-18T00:15:04.265Z,1017.15
2017-07-18T00:15:44.901Z,1017.2
2017-07-18T00:16:25.473Z,1017.2
2017-07-18T00:17:09.185Z,1017.13
2017-07-18T00:17:50.363Z,1017.23
2017-07-18T00:18:30.947Z,1017.21
2017-07-18T00:19:11.520Z,1017.25
2017-07-18T00:19:52.111Z,1017.22
2017-07-18T00:20:32.674Z,1017.21
2017-07-18T00:21:13.349Z,1017.24
2017-07-18T00:21:53.925Z,1017.25
2017-07-18T00:22:34.526Z,1017.23
2017-07-18T00:23:15.116Z,1017.22
2017-07-18T00:23:55.688Z,1017.26
2017-07-18T00:24:36.249Z,1017.23
2017-07-18T00:25:16.813Z,1017.23
2017-07-18T00:25:57.380Z,1017.25
2017-07-18T00:26:37.967Z,1017.26
2017-07-18T00:27:18.573Z,1017.25
2017-07-18T00:27:59.156Z,1017.29
2017-07-18T00:28:39.723Z,1017.29
2017-07-18T00:29:20.285Z,1017.28
2017-07-18T00:30:00.835Z,1017.26
2017-07-18T00:30:41.399Z,1017.26
2017-07-18T00:31:21.986Z,1017.26
2017-07-18T00:32:02.560Z,1017.25
2017-07-18T00:32:43.180Z,1017.26
2017-07-18T00:33:23.743Z,1017.25
2017-07-18T00:34:04.336Z,1017.24
2017-07-18T00:34:44.892Z,1017.29
2017-07-18T00:35:25.473Z,1017.29
2017-07-18T00:36:06.093Z,1017.25
2017-07-18T00:36:46.663Z,1017.28
2017-07-18T00:37:27.255Z,1017.27
2017-07-18T00:38:07.843Z,1017.3
2017-07-18T00:38:48.420Z,1017.27
2017-07-18T00:39:28.982Z,1017.29
2017-07-18T00:40:09.593Z,1017.29
2017-07-18T00:40:50.195Z,1017.24
2017-07-18T00:41:30.808Z,1017.25
2017-07-18T00:42:11.377Z,1017.26
2017-07-18T00:42:51.964Z,1017.22
2017-07-18T00:43:32.546Z,1017.27
2017-07-18T00:44:13.126Z,1017.21
2017-07-18T00:44:53.706Z,1017.2
2017-07-18T00:45:34.302Z,1017.22
2017-07-18T00:46:14.900Z,1017.22
2017-07-18T00:46:55.498Z,1017.21
2017-07-18T00:47:36.080Z,1017.24
2017-07-18T00:48:16.724Z,1017.24
2017-07-18T00:48:57.273Z,1017.24
2017-07-18T00:49:37.862Z,1017.21
2017-07-18T00:50:18.450Z,1017.24
2017-07-18T00:50:59.063Z,1017.25
2017-07-18T00:51:39.627Z,1017.25
2017-07-18T00:52:20.206Z,1017.27
2017-07-18T00:53:00.774Z,1017.27
2017-07-18T00:53:41.327Z,1017.24
2017-07-18T00:54:21.917Z,1017.26
2017-07-18T00:55:02.477Z,1017.25
2017-07-18T00:55:43.075Z,1017.23
2017-07-18T00:56:23.675Z,1017.24
2017-07-18T00:57:04.234Z,1017.23
2017-07-18T00:57:44.829Z,1017.21
2017-07-18T00:58:25.399Z,1017.22
2017-07-18T00:59:05.955Z,1017.22
2017-07-18T00:59:46.538Z,1017.23
2017-07-18T01:00:27.128Z,1017.22
2017-07-18T01:01:07.707Z,1017.22
2017-07-18T01:01:48.298Z,1017.23
2017-07-18T01:02:28.891Z,1017.18
2017-07-18T01:03:09.469Z,1017.16
2017-07-18T01:03:50.044Z,1017.21
2017-07-18T01:04:30.634Z,1017.16
2017-07-18T01:05:11.219Z,1017.19
2017-07-18T01:05:51.792Z,1017.18
2017-07-18T01:06:32.386Z,1017.13
2017-07-18T01:07:12.960Z,1017.18
2017-07-18T01:07:53.553Z,1017.14
2017-07-18T01:08:34.151Z,1017.15
2017-07-18T01:09:14.714Z,1017.18
2017-07-18T01:09:55.350Z,1017.16
2017-07-18T01:10:35.955Z,1017.17
2017-07-18T01:11:16.573Z,1017.15
2017-07-18T01:11:57.154Z,1017.17
2017-07-18T01:12:37.718Z,1017.17
2017-07-18T01:13:18.293Z,1017.13
2017-07-18T01:13:58.862Z,1017.19
2017-07-18T01:14:39.462Z,1017.19
2017-07-18T01:15:20.041Z,1017.24
2017-07-18T01:16:00.626Z,1017.18
2017-07-18T01:16:41.211Z,1017.22
2017-07-18T01:17:21.827Z,1017.18
2017-07-18T01:18:02.436Z,1017.21
2017-07-18T01:18:43.015Z,1017.2
2017-07-18T01:19:23.612Z,1017.22
2017-07-18T01:20:04.181Z,1017.2
2017-07-18T01:20:44.780Z,1017.18
2017-07-18T01:21:25.340Z,1017.2
2017-07-18T01:22:05.932Z,1017.2
2017-07-18T01:22:46.523Z,1017.21
2017-07-18T01:23:27.100Z,1017.23
2017-07-18T01:24:07.692Z,1017.19
2017-07-18T01:24:48.290Z,1017.22
2017-07-18T01:25:28.895Z,1017.19
2017-07-18T01:26:09.474Z,1017.2
2017-07-18T01:26:50.039Z,1017.18
2017-07-18T01:27:30.637Z,1017.2
2017-07-18T01:28:11.201Z,1017.19
2017-07-18T01:28:51.809Z,1017.18
2017-07-18T01:29:32.367Z,1017.19
2017-07-18T01:30:12.965Z,1017.22
2017-07-18T01:30:53.575Z,1017.2
2017-07-18T01:31:34.163Z,1017.2
2017-07-18T01:32:14.732Z,1017.2
2017-07-18T01:32:55.295Z,1017.17
2017-07-18T01:33:35.868Z,1017.21
2017-07-18T01:34:16.434Z,1017.17
2017-07-18T01:34:56.999Z,1017.14
2017-07-18T01:35:37.591Z,1017.15
2017-07-18T01:36:18.170Z,1017.19
2017-07-18T01:36:58.737Z,1017.18
2017-07-18T01:37:39.314Z,1017.14
2017-07-18T01:38:19.875Z,1017.14
2017-07-18T01:39:00.450Z,1017.19
2017-07-18T01:39:41.033Z,1017.13
2017-07-18T01:40:21.622Z,1017.14
2017-07-18T01:41:02.211Z,1017.17
2017-07-18T01:41:42.788Z,1017.16
2017-07-18T01:42:23.369Z,1017.11
2017-07-18T01:43:03.965Z,1017.16
2017-07-18T01:43:44.548Z,1017.14
2017-07-18T01:44:25.129Z,1017.17
2017-07-18T01:45:05.708Z,1017.17
2017-07-18T01:45:46.300Z,1017.15
2017-07-18T01:46:26.867Z,1017.12
2017-07-18T01:47:07.443Z,1017.14
2017-07-18T01:47:48.029Z,1017.18
2017-07-18T01:48:28.593Z,1017.16
2017-07-18T01:49:09.173Z,1017.17
2017-07-18T01:49:49.768Z,1017.17
2017-07-18T01:50:30.337Z,1017.23
2017-07-18T01:51:10.903Z,1017.2
2017-07-18T01:51:51.478Z,1017.21
2017-07-18T01:52:32.081Z,1017.23
2017-07-18T01:53:12.657Z,1017.22
2017-07-18T01:53:53.218Z,1017.21
2017-07-18T01:54:33.785Z,1017.21
2017-07-18T01:55:14.356Z,1017.24
2017-07-18T01:55:54.927Z,1017.2
2017-07-18T01:56:35.502Z,1017.25
2017-07-18T01:57:16.082Z,1017.21
2017-07-18T01:57:56.645Z,1017.26
2017-07-18T01:58:37.232Z,1017.26
2017-07-18T01:59:17.813Z,1017.22
2017-07-18T01:59:58.393Z,1017.27
2017-07-18T02:00:38.980Z,1017.21
2017-07-18T02:01:19.570Z,1017.23
2017-07-18T02:02:00.148Z,1017.25
2017-07-18T02:02:40.760Z,1017.24
2017-07-18T02:03:21.347Z,1017.22
2017-07-18T02:04:01.908Z,1017.22
2017-07-18T02:04:42.507Z,1017.21
2017-07-18T02:05:23.077Z,1017.25
2017-07-18T02:06:03.645Z,1017.28
2017-07-18T02:06:44.233Z,1017.25
2017-07-18T02:07:24.813Z,1017.23
2017-07-18T02:08:05.405Z,1017.21
2017-07-18T02:08:45.988Z,1017.23
2017-07-18T02:09:26.556Z,1017.23
2017-07-18T02:10:07.193Z,1017.23
2017-07-18T02:10:47.770Z,1017.25
2017-07-18T02:11:28.386Z,1017.26
2017-07-18T02:12:08.962Z,1017.26
2017-07-18T02:12:49.570Z,1017.24
2017-07-18T02:13:30.160Z,1017.25
2017-07-18T02:14:10.744Z,1017.26
2017-07-18T02:14:51.319Z,1017.26
2017-07-18T02:15:31.883Z,1017.24
2017-07-18T02:16:12.465Z,1017.25
2017-07-18T02:16:53.036Z,1017.23
2017-07-18T02:17:33.612Z,1017.22
2017-07-18T02:18:14.214Z,1017.24
2017-07-18T02:18:54.839Z,1017.23
2017-07-18T02:19:35.435Z,1017.25
2017-07-18T02:20:16.011Z,1017.24
2017-07-18T02:20:56.605Z,1017.23
2017-07-18T02:21:37.164Z,1017.18
2017-07-18T02:22:17.748Z,1017.21
2017-07-18T02:22:58.352Z,1017.21
2017-07-18T02:23:38.928Z,1017.21
2017-07-18T02:24:19.520Z,1017.22
2017-07-18T02:25:00.085Z,1017.2
2017-07-18T02:25:40.670Z,1017.25
2017-07-18T02:26:21.279Z,1017.21
2017-07-18T02:27:01.893Z,1017.18
2017-07-18T02:27:42.458Z,1017.23
2017-07-18T02:28:23.028Z,1017.2
2017-07-18T02:29:03.594Z,1017.2
2017-07-18T02:29:44.172Z,1017.18
2017-07-18T02:30:24.793Z,1017.18
2017-07-18T02:31:05.404Z,1017.19
2017-07-18T02:31:45.981Z,1017.21
2017-07-18T02:32:26.572Z,1017.19
2017-07-18T02:33:07.147Z,1017.21
2017-07-18T02:33:47.718Z,1017.24
2017-07-18T02:34:28.282Z,1017.23
2017-07-18T02:35:08.886Z,1017.17
2017-07-18T02:35:49.443Z,1017.23
2017-07-18T02:36:30.016Z,1017.23
2017-07-18T02:37:10.594Z,1017.17
2017-07-18T02:37:51.194Z,1017.18
2017-07-18T02:38:31.757Z,1017.2
2017-07-18T02:39:12.328Z,1017.19
2017-07-18T02:39:52.919Z,1017.23
2017-07-18T02:40:33.491Z,1017.22
2017-07-18T02:41:14.063Z,1017.21
2017-07-18T02:41:54.630Z,1017.23
2017-07-18T02:42:35.217Z,1017.21
2017-07-18T02:43:15.817Z,1017.21
2017-07-18T02:43:56.427Z,1017.24
2017-07-18T02:44:37.050Z,1017.22
2017-07-18T02:45:17.596Z,1017.2
2017-07-18T02:45:58.179Z,1017.24
2017-07-18T02:46:38.760Z,1017.26
2017-07-18T02:47:19.352Z,1017.24
2017-07-18T02:47:59.913Z,1017.24
2017-07-18T02:48:40.485Z,1017.26
2017-07-18T02:49:21.054Z,1017.25
2017-07-18T02:50:01.623Z,1017.25
2017-07-18T02:50:42.193Z,1017.26
2017-07-18T02:51:22.772Z,1017.27
2017-07-18T02:52:03.360Z,1017.28
2017-07-18T02:52:43.956Z,1017.28
2017-07-18T02:53:24.522Z,1017.28
2017-07-18T02:54:05.102Z,1017.28
2017-07-18T02:54:45.683Z,1017.28
2017-07-18T02:55:26.265Z,1017.29
2017-07-18T02:56:06.864Z,1017.3
2017-07-18T02:56:47.427Z,1017.31
2017-07-18T02:57:28.000Z,1017.27
2017-07-18T02:58:08.570Z,1017.26
2017-07-18T02:58:49.148Z,1017.3
2017-07-18T02:59:29.713Z,1017.28
2017-07-18T03:00:10.307Z,1017.27
2017-07-18T03:00:50.900Z,1017.29
2017-07-18T03:01:31.497Z,1017.29
2017-07-18T03:02:12.060Z,1017.29
2017-07-18T03:02:52.627Z,1017.29
2017-07-18T03:03:33.223Z,1017.25
2017-07-18T03:04:13.802Z,1017.3
2017-07-18T03:04:54.380Z,1017.29
2017-07-18T03:05:34.968Z,1017.29
2017-07-18T03:06:15.590Z,1017.34
2017-07-18T03:06:56.177Z,1017.34
2017-07-18T03:07:36.767Z,1017.32
2017-07-18T03:08:17.340Z,1017.33
2017-07-18T03:08:57.928Z,1017.33
2017-07-18T03:09:38.530Z,1017.32
2017-07-18T03:10:19.101Z,1017.33
2017-07-18T03:10:59.687Z,1017.32
2017-07-18T03:11:40.289Z,1017.34
2017-07-18T03:12:20.854Z,1017.36
2017-07-18T03:13:01.443Z,1017.35
2017-07-18T03:13:42.029Z,1017.35
2017-07-18T03:14:22.599Z,1017.34
2017-07-18T03:15:03.193Z,1017.36
2017-07-18T03:15:43.782Z,1017.34
2017-07-18T03:16:24.366Z,1017.36
2017-07-18T03:17:04.955Z,1017.39
2017-07-18T03:17:45.522Z,1017.36
2017-07-18T03:18:26.120Z,1017.38
2017-07-18T03:19:06.680Z,1017.39
2017-07-18T03:19:47.254Z,1017.39
2017-07-18T03:20:27.827Z,1017.44
2017-07-18T03:21:08.413Z,1017.42
2017-07-18T03:21:49.011Z,1017.45
2017-07-18T03:22:29.591Z,1017.47
2017-07-18T03:23:10.176Z,1017.47
2017-07-18T03:23:50.749Z,1017.45
2017-07-18T03:24:31.323Z,1017.41
2017-07-18T03:25:11.921Z,1017.44
2017-07-18T03:25:52.525Z,1017.46
2017-07-18T03:26:33.106Z,1017.47
2017-07-18T03:27:13.683Z,1017.44
2017-07-18T03:27:54.267Z,1017.46
2017-07-18T03:28:34.829Z,1017.46
2017-07-18T03:29:15.395Z,1017.48
2017-07-18T03:29:55.980Z,1017.45
2017-07-18T03:30:36.579Z,1017.46
2017-07-18T03:31:17.192Z,1017.51
2017-07-18T03:31:57.761Z,1017.49
2017-07-18T03:32:38.333Z,1017.46
2017-07-18T03:33:18.899Z,1017.47
2017-07-18T03:33:59.485Z,1017.54
2017-07-18T03:34:40.060Z,1017.52
2017-07-18T03:35:20.632Z,1017.51
2017-07-18T03:36:01.213Z,1017.54
2017-07-18T03:36:41.798Z,1017.52
2017-07-18T03:37:22.383Z,1017.53
2017-07-18T03:38:02.947Z,1017.55
2017-07-18T03:38:43.551Z,1017.56
2017-07-18T03:39:24.134Z,1017.58
2017-07-18T03:40:04.712Z,1017.55
2017-07-18T03:40:45.280Z,1017.59
2017-07-18T03:41:25.853Z,1017.59
2017-07-18T03:42:06.447Z,1017.58
2017-07-18T03:42:47.054Z,1017.6
2017-07-18T03:43:27.660Z,1017.58
2017-07-18T03:44:08.238Z,1017.58
2017-07-18T03:44:48.806Z,1017.62
2017-07-18T03:45:29.399Z,1017.6
2017-07-18T03:46:09.968Z,1017.58
2017-07-18T03:46:50.537Z,1017.64
2017-07-18T03:47:31.112Z,1017.61
2017-07-18T03:48:11.715Z,1017.59
2017-07-18T03:48:52.300Z,1017.62
2017-07-18T03:49:32.893Z,1017.62
2017-07-18T03:50:13.466Z,1017.61
2017-07-18T03:50:54.042Z,1017.65
2017-07-18T03:51:34.628Z,1017.66
2017-07-18T03:52:15.199Z,1017.66
2017-07-18T03:52:55.801Z,1017.66
2017-07-18T03:53:36.393Z,1017.67
2017-07-18T03:54:16.975Z,1017.69
2017-07-18T03:54:57.544Z,1017.68
2017-07-18T03:55:38.173Z,1017.7
2017-07-18T03:56:18.933Z,1017.71
2017-07-18T03:56:59.499Z,1017.68
2017-07-18T03:57:40.076Z,1017.68
2017-07-18T03:58:20.670Z,1017.69
2017-07-18T03:59:01.371Z,1017.69
2017-07-18T03:59:42.007Z,1017.72
2017-07-18T04:00:22.588Z,1017.78
2017-07-18T04:01:03.185Z,1017.71
2017-07-18T04:01:43.758Z,1017.76
2017-07-18T04:02:24.332Z,1017.69
2017-07-18T04:03:04.901Z,1017.73
2017-07-18T04:03:45.477Z,1017.69
2017-07-18T04:04:26.071Z,1017.72
2017-07-18T04:05:06.649Z,1017.69
2017-07-18T04:05:47.210Z,1017.73
2017-07-18T04:06:27.807Z,1017.67
2017-07-18T04:07:08.409Z,1017.66
2017-07-18T04:07:48.971Z,1017.71
2017-07-18T04:08:29.568Z,1017.71
2017-07-18T04:09:10.143Z,1017.68
2017-07-18T04:09:50.737Z,1017.68
2017-07-18T04:10:31.321Z,1017.65
2017-07-18T04:11:11.903Z,1017.71
2017-07-18T04:11:52.495Z,1017.71
2017-07-18T04:12:33.096Z,1017.71
2017-07-18T04:13:13.664Z,1017.69
2017-07-18T04:13:54.278Z,1017.7
2017-07-18T04:14:34.850Z,1017.68
2017-07-18T04:15:15.427Z,1017.69
2017-07-18T04:15:55.997Z,1017.68
2017-07-18T04:16:36.578Z,1017.7
2017-07-18T04:17:17.165Z,1017.73
2017-07-18T04:17:57.944Z,1017.69
2017-07-18T04:18:38.543Z,1017.68
2017-07-18T04:19:19.115Z,1017.65
2017-07-18T04:19:59.737Z,1017.7
2017-07-18T04:20:40.315Z,1017.69
2017-07-18T04:21:20.899Z,1017.68
2017-07-18T04:22:01.487Z,1017.69
2017-07-18T04:22:42.158Z,1017.68
2017-07-18T04:23:22.722Z,1017.69
2017-07-18T04:24:03.310Z,1017.66
2017-07-18T04:24:43.901Z,1017.71
2017-07-18T04:25:24.475Z,1017.69
2017-07-18T04:26:05.099Z,1017.68
2017-07-18T04:26:45.669Z,1017.69
2017-07-18T04:27:26.240Z,1017.71
2017-07-18T04:28:06.820Z,1017.72
2017-07-18T04:28:47.397Z,1017.73
2017-07-18T04:29:27.986Z,1017.69
2017-07-18T04:30:08.568Z,1017.7
2017-07-18T04:30:49.147Z,1017.71
2017-07-18T04:31:29.712Z,1017.75
2017-07-18T04:32:10.285Z,1017.77
2017-07-18T04:32:50.865Z,1017.74
2017-07-18T04:33:31.456Z,1017.72
2017-07-18T04:34:12.070Z,1017.72
2017-07-18T04:34:52.671Z,1017.75
2017-07-18T04:35:33.242Z,1017.77
2017-07-18T04:36:13.819Z,1017.72
2017-07-18T04:36:54.405Z,1017.75
2017-07-18T04:37:35.017Z,1017.78
2017-07-18T04:38:15.638Z,1017.76
2017-07-18T04:38:56.244Z,1017.77
2017-07-18T04:39:36.828Z,1017.75
2017-07-18T04:40:17.447Z,1017.77
2017-07-18T04:40:58.028Z,1017.71
2017-07-18T04:41:38.641Z,1017.77
2017-07-18T04:42:19.237Z,1017.77
2017-07-18T04:42:59.816Z,1017.8
2017-07-18T04:43:40.392Z,1017.77
2017-07-18T04:44:20.951Z,1017.77
2017-07-18T04:45:01.546Z,1017.8
2017-07-18T04:45:42.123Z,1017.8
2017-07-18T04:46:22.835Z,1017.83
2017-07-18T04:47:03.456Z,1017.81
2017-07-18T04:47:44.051Z,1017.82
2017-07-18T04:48:24.619Z,1017.79
2017-07-18T04:49:05.211Z,1017.81
2017-07-18T04:49:45.776Z,1017.82
2017-07-18T04:50:26.354Z,1017.81
2017-07-18T04:51:06.938Z,1017.79
2017-07-18T04:51:47.529Z,1017.8
2017-07-18T04:52:28.098Z,1017.82
2017-07-18T04:53:08.668Z,1017.84
2017-07-18T04:53:49.240Z,1017.83
2017-07-18T04:54:29.840Z,1017.87
2017-07-18T04:55:10.412Z,1017.84
2017-07-18T04:55:50.998Z,1017.85
2017-07-18T04:56:31.577Z,1017.88
2017-07-18T04:57:12.157Z,1017.83
2017-07-18T04:57:52.748Z,1017.86
2017-07-18T04:58:33.391Z,1017.86
2017-07-18T04:59:14.805Z,1017.83
2017-07-18T04:59:55.409Z,1017.87
2017-07-18T05:00:35.968Z,1017.86
2017-07-18T05:01:16.552Z,1017.83
2017-07-18T05:01:57.142Z,1017.83
2017-07-18T05:02:37.721Z,1017.81
2017-07-18T05:03:18.307Z,1017.81
2017-07-18T05:03:58.888Z,1017.86
2017-07-18T05:04:39.482Z,1017.82
2017-07-18T05:05:20.063Z,1017.82
2017-07-18T05:06:00.647Z,1017.81
2017-07-18T05:06:41.258Z,1017.83
2017-07-18T05:07:21.827Z,1017.83
2017-07-18T05:08:02.401Z,1017.83
2017-07-18T05:08:42.996Z,1017.81
2017-07-18T05:09:23.573Z,1017.83
2017-07-18T05:10:04.150Z,1017.81
2017-07-18T05:10:44.733Z,1017.81
2017-07-18T05:11:25.320Z,1017.81
2017-07-18T05:12:05.919Z,1017.87
2017-07-18T05:12:46.494Z,1017.85
2017-07-18T05:13:27.080Z,1017.82
2017-07-18T05:14:07.673Z,1017.84
2017-07-18T05:14:48.280Z,1017.84
2017-07-18T05:15:28.868Z,1017.86
2017-07-18T05:16:09.457Z,1017.85
2017-07-18T05:16:50.034Z,1017.86
2017-07-18T05:17:30.662Z,1017.87
2017-07-18T05:18:11.235Z,1017.85
2017-07-18T05:18:51.814Z,1017.89
2017-07-18T05:19:32.375Z,1017.88
2017-07-18T05:20:12.995Z,1017.87
2017-07-18T05:20:53.575Z,1017.9
2017-07-18T05:21:34.161Z,1017.84
2017-07-18T05:22:14.746Z,1017.87
2017-07-18T05:22:55.332Z,1017.88
2017-07-18T05:23:35.926Z,1017.9
2017-07-18T05:24:16.501Z,1017.94
2017-07-18T05:24:57.078Z,1017.88
2017-07-18T05:25:37.668Z,1017.89
2017-07-18T05:26:18.275Z,1017.89
2017-07-18T05:26:58.889Z,1017.92
2017-07-18T05:27:39.496Z,1017.89
2017-07-18T05:28:20.073Z,1017.9
2017-07-18T05:29:00.701Z,1017.94
2017-07-18T05:29:41.279Z,1017.92
2017-07-18T05:30:21.899Z,1017.92
2017-07-18T05:31:02.487Z,1017.94
2017-07-18T05:31:43.072Z,1017.92
2017-07-18T05:32:23.661Z,1017.95
2017-07-18T05:33:04.239Z,1017.96
2017-07-18T05:33:44.820Z,1017.93
2017-07-18T05:34:25.427Z,1017.95
2017-07-18T05:35:06.009Z,1017.93
2017-07-18T05:35:46.582Z,1017.97
2017-07-18T05:36:27.173Z,1017.95
2017-07-18T05:37:07.752Z,1018.08
2017-07-18T05:37:48.320Z,1018.14
2017-07-18T05:38:28.922Z,1018.18
2017-07-18T05:39:09.564Z,1018.18
2017-07-18T05:39:50.140Z,1018.18
2017-07-18T05:40:30.749Z,1018.17
2017-07-18T05:41:11.368Z,1018.24
2017-07-18T05:41:51.958Z,1018.36
2017-07-18T05:42:32.527Z,1018.35
2017-07-18T05:43:13.111Z,1018.41
2017-07-18T05:43:53.679Z,1018.38
2017-07-18T05:44:34.285Z,1018.36
2017-07-18T05:45:14.859Z,1018.37
2017-07-18T05:45:55.483Z,1018.4
2017-07-18T05:46:36.064Z,1018.48
2017-07-18T05:47:16.645Z,1018.46
2017-07-18T05:47:57.239Z,1018.48
2017-07-18T05:48:38.283Z,1018.53
2017-07-18T05:49:19.036Z,1018.55
2017-07-18T05:50:00.015Z,1018.52
2017-07-18T05:50:40.992Z,1018.52
2017-07-18T05:51:22.286Z,1018.52
2017-07-18T05:52:02.867Z,1018.53
2017-07-18T05:52:43.443Z,1018.64
2017-07-18T05:53:24.027Z,1018.63
2017-07-18T05:54:04.632Z,1018.69
2017-07-18T05:54:45.243Z,1018.73
2017-07-18T05:55:25.878Z,1018.83
2017-07-18T05:56:06.626Z,1018.83
2017-07-18T05:56:47.225Z,1018.89
2017-07-18T05:57:27.813Z,1018.91
2017-07-18T05:58:09.184Z,1018.99
2017-07-18T05:58:49.768Z,1018.94
2017-07-18T05:59:30.340Z,1019.05
2017-07-18T06:00:10.941Z,1019.12
2017-07-18T06:00:51.560Z,1019.16
2017-07-18T06:01:32.157Z,1019.27
2017-07-18T06:02:12.859Z,1019.34
2017-07-18T06:02:53.459Z,1019.41
2017-07-18T06:03:34.054Z,1019.46
2017-07-18T06:04:14.788Z,1019.49
2017-07-18T06:04:55.367Z,1019.61
2017-07-18T06:05:35.991Z,1019.68
2017-07-18T06:06:16.833Z,1019.74
2017-07-18T06:06:57.934Z,1019.82
2017-07-18T06:07:38.528Z,1019.77
2017-07-18T06:08:19.194Z,1019.84
2017-07-18T06:08:59.812Z,1019.81
2017-07-18T06:09:40.523Z,1019.82
2017-07-18T06:10:21.134Z,1019.86
2017-07-18T06:11:01.797Z,1019.87
2017-07-18T06:11:42.344Z,1019.81
2017-07-18T06:12:22.948Z,1019.86
2017-07-18T06:13:03.636Z,1019.82
2017-07-18T06:13:44.353Z,1019.74
2017-07-18T06:14:24.950Z,1019.55
2017-07-18T06:15:05.536Z,1019.42
2017-07-18T06:15:46.164Z,1019.31
2017-07-18T06:16:26.737Z,1019.23
2017-07-18T06:17:07.331Z,1019.25
2017-07-18T06:17:48.064Z,1019.2
2017-07-18T06:18:28.825Z,1019.19
2017-07-18T06:19:09.425Z,1019.13
2017-07-18T06:19:50.639Z,1019.04
2017-07-18T06:20:31.342Z,1018.93
2017-07-18T06:21:12.042Z,1018.93
2017-07-18T06:21:52.673Z,1018.88
2017-07-18T06:22:33.410Z,1018.89
2017-07-18T06:23:13.985Z,1018.85
2017-07-18T06:23:54.564Z,1019.03
2017-07-18T06:24:35.247Z,1019.4
2017-07-18T06:25:15.876Z,1019.72
2017-07-18T06:25:56.498Z,1019.93
2017-07-18T06:26:37.227Z,1019.95
2017-07-18T06:27:18.212Z,1019.77
2017-07-18T06:27:58.824Z,1019.71
2017-07-18T06:28:39.418Z,1019.68
2017-07-18T06:29:20.021Z,1019.65
2017-07-18T06:30:00.585Z,1019.62
2017-07-18T06:30:41.167Z,1019.46
2017-07-18T06:31:21.764Z,1019.34
2017-07-18T06:32:02.334Z,1019.29
2017-07-18T06:32:42.934Z,1019.5
2017-07-18T06:33:23.509Z,1019.75
2017-07-18T06:34:04.092Z,1019.75
2017-07-18T06:34:44.689Z,1019.79
2017-07-18T06:35:25.291Z,1019.93
2017-07-18T06:36:05.884Z,1019.96
2017-07-18T06:36:46.482Z,1019.92
2017-07-18T06:37:27.061Z,1019.87
2017-07-18T06:38:07.641Z,1019.95
2017-07-18T06:38:48.247Z,1019.95
2017-07-18T06:39:28.831Z,1019.72
2017-07-18T06:40:09.432Z,1019.55
2017-07-18T06:40:50.071Z,1019.72
2017-07-18T06:41:30.672Z,1020
2017-07-18T06:42:11.301Z,1020.07
2017-07-18T06:42:51.915Z,1020
2017-07-18T06:43:32.522Z,1019.95
2017-07-18T06:44:13.102Z,1019.94
2017-07-18T06:44:53.716Z,1020.01
2017-07-18T06:45:34.310Z,1019.87
2017-07-18T06:46:14.893Z,1019.43
2017-07-18T06:46:55.501Z,1018.94
2017-07-18T06:47:36.092Z,1018.56
2017-07-18T06:48:16.700Z,1018.44
2017-07-18T06:48:57.613Z,1018.41
2017-07-18T06:49:38.222Z,1018.4
2017-07-18T06:50:18.819Z,1018.36
2017-07-18T06:50:59.394Z,1018.36
2017-07-18T06:51:39.981Z,1018.35
2017-07-18T06:52:20.617Z,1018.35
2017-07-18T06:53:01.229Z,1018.37
2017-07-18T06:53:41.855Z,1018.36
2017-07-18T06:54:22.494Z,1018.34
2017-07-18T06:55:03.071Z,1018.42
2017-07-18T06:55:43.641Z,1018.55
2017-07-18T06:56:24.238Z,1018.87
2017-07-18T06:57:04.814Z,1019.17
2017-07-18T06:57:45.404Z,1019.18
2017-07-18T06:58:26.015Z,1018.89
2017-07-18T06:59:06.695Z,1018.57
2017-07-18T06:59:47.324Z,1018.4
2017-07-18T07:00:27.960Z,1018.37
2017-07-18T07:01:08.570Z,1018.35
2017-07-18T07:01:49.154Z,1018.31
2017-07-18T07:02:29.753Z,1018.33
2017-07-18T07:03:10.350Z,1018.32
2017-07-18T07:03:50.944Z,1018.3
2017-07-18T07:04:31.587Z,1018.33
2017-07-18T07:05:12.181Z,1018.3
2017-07-18T07:05:52.791Z,1018.33
2017-07-18T07:06:33.379Z,1018.32
2017-07-18T07:07:13.968Z,1018.29
2017-07-18T07:07:54.579Z,1018.27
2017-07-18T07:08:35.181Z,1018.27
2017-07-18T07:09:15.762Z,1018.28
2017-07-18T07:09:56.383Z,1018.29
2017-07-18T07:10:36.966Z,1018.33
2017-07-18T07:11:17.530Z,1018.31
2017-07-18T07:11:58.156Z,1018.31
2017-07-18T07:12:38.760Z,1018.31
2017-07-18T07:13:19.397Z,1018.33
2017-07-18T07:13:59.959Z,1018.33
2017-07-18T07:14:40.547Z,1018.34
2017-07-18T07:15:21.244Z,1018.38
2017-07-18T07:16:01.814Z,1018.46
2017-07-18T07:16:42.452Z,1018.49
2017-07-18T07:17:23.032Z,1018.46
2017-07-18T07:18:03.607Z,1018.38
2017-07-18T07:18:44.195Z,1018.3
2017-07-18T07:19:24.804Z,1018.29
2017-07-18T07:20:05.415Z,1018.32
2017-07-18T07:20:45.999Z,1018.3
2017-07-18T07:21:26.611Z,1018.35
2017-07-18T07:22:07.214Z,1018.29
2017-07-18T07:22:47.842Z,1018.29
2017-07-18T07:23:28.416Z,1018.33
2017-07-18T07:24:08.998Z,1018.28
2017-07-18T07:24:49.609Z,1018.3
2017-07-18T07:25:30.239Z,1018.28
2017-07-18T07:26:10.845Z,1018.31
2017-07-18T07:26:51.428Z,1018.33
2017-07-18T07:27:32.022Z,1018.31
2017-07-18T07:28:12.628Z,1018.34
2017-07-18T07:28:53.236Z,1018.36
2017-07-18T07:29:33.910Z,1018.41
2017-07-18T07:30:14.489Z,1018.46
2017-07-18T07:30:55.086Z,1018.45
2017-07-18T07:31:35.701Z,1018.49
2017-07-18T07:32:16.302Z,1018.49
2017-07-18T07:32:56.878Z,1018.56
2017-07-18T07:33:37.465Z,1018.56
2017-07-18T07:34:18.051Z,1018.56
2017-07-18T07:34:58.662Z,1018.53
2017-07-18T07:35:39.287Z,1018.52
2017-07-18T07:36:19.867Z,1018.48
2017-07-18T07:37:00.446Z,1018.42
2017-07-18T07:37:41.220Z,1018.4
2017-07-18T07:38:21.806Z,1018.39
2017-07-18T07:39:02.405Z,1018.4
2017-07-18T07:39:43.067Z,1018.32
2017-07-18T07:40:23.685Z,1018.41
2017-07-18T07:41:04.265Z,1018.32
2017-07-18T07:41:44.841Z,1018.23
2017-07-18T07:42:25.462Z,1018.26
2017-07-18T07:43:06.062Z,1018.24
2017-07-18T07:43:46.622Z,1018.25
2017-07-18T07:44:27.222Z,1018.22
2017-07-18T07:45:07.812Z,1018.23
2017-07-18T07:45:48.393Z,1018.24
2017-07-18T07:46:28.981Z,1018.22
2017-07-18T07:47:09.567Z,1018.2
2017-07-18T07:47:50.167Z,1018.19
2017-07-18T07:48:30.781Z,1018.2
2017-07-18T07:49:11.364Z,1018.3
2017-07-18T07:49:51.946Z,1018.25
2017-07-18T07:50:32.515Z,1018.26
2017-07-18T07:51:13.091Z,1018.24
2017-07-18T07:51:53.688Z,1018.27
2017-07-18T07:52:34.274Z,1018.25
2017-07-18T07:53:14.861Z,1018.22
2017-07-18T07:53:55.413Z,1018.22
2017-07-18T07:54:36.024Z,1018.25
2017-07-18T07:55:16.610Z,1018.23
2017-07-18T07:55:57.201Z,1018.25
2017-07-18T07:56:37.814Z,1018.27
2017-07-18T07:57:18.390Z,1018.25
2017-07-18T07:57:58.964Z,1018.31
2017-07-18T07:58:39.563Z,1018.33
2017-07-18T07:59:20.155Z,1018.33
2017-07-18T08:00:00.753Z,1018.38
2017-07-18T08:00:41.327Z,1018.34
2017-07-18T08:01:21.956Z,1018.36
2017-07-18T08:02:02.557Z,1018.33
2017-07-18T08:02:43.155Z,1018.3
2017-07-18T08:03:23.766Z,1018.27
2017-07-18T08:04:04.326Z,1018.18
2017-07-18T08:04:44.912Z,1018.24
2017-07-18T08:05:25.504Z,1018.21
2017-07-18T08:06:06.117Z,1018.24
2017-07-18T08:06:46.713Z,1018.24
2017-07-18T08:07:27.301Z,1018.22
2017-07-18T08:08:07.893Z,1018.18
2017-07-18T08:08:48.459Z,1018.21
2017-07-18T08:09:29.073Z,1018.22
2017-07-18T08:10:09.689Z,1018.19
2017-07-18T08:10:50.272Z,1018.19
2017-07-18T08:11:30.867Z,1018.23
2017-07-18T08:12:14.660Z,1018.21